Time;durP1;ratioP1;P1;durP2;ratioP2;P2;SDS_P1;SDS_P2;PMS_P1;PMS_P2;Temp;Humidity;BMP_temperature;BMP_pressure;BME280_temperature;BME280_humidity;BME280_pressure;Samples;Min_cycle;Max_cycle;Signal;HPM_P1;HPM_P2
2023/05/22 00:00:34;;;;;;;11.98;9.73;;;;;;;18.06;69.59;99418.75;1087476;54;20129;-85
2023/05/22 00:01:41;;;;;;;13.00;9.60;;;;;;;18.01;69.50;99421.22;1087463;54;20039;-82
2023/05/22 00:02:45;;;;;;;12.70;9.32;;;;;;;17.99;69.94;99419.78;1087515;54;20030;-83
2023/05/22 00:03:49;;;;;;;11.35;9.82;;;;;;;17.93;70.17;99422.25;1087535;54;20037;-85
2023/05/22 00:04:53;;;;;;;10.60;9.50;;;;;;;17.90;70.27;99419.16;1087233;47;20045;-84
2023/05/22 00:05:57;;;;;;;11.35;9.95;;;;;;;17.88;70.03;99411.22;1087235;54;20046;-83
2023/05/22 00:07:02;;;;;;;10.75;9.50;;;;;;;17.85;70.50;99414.38;1087410;54;20061;-83
2023/05/22 00:08:04;;;;;;;11.52;10.32;;;;;;;17.77;70.69;99412.69;1087478;54;20034;-85
2023/05/22 00:09:07;;;;;;;11.65;10.45;;;;;;;17.71;71.16;99412.69;1087400;54;20061;-84
2023/05/22 00:10:10;;;;;;;10.88;9.75;;;;;;;17.66;71.15;99407.91;1087091;47;20489;-84
2023/05/22 00:11:13;;;;;;;13.13;10.38;;;;;;;17.64;71.41;99412.66;1087238;54;20086;-87
2023/05/22 00:12:15;;;;;;;11.73;10.52;;;;;;;17.60;71.21;99401.44;1087468;54;20041;-85
2023/05/22 00:13:19;;;;;;;11.48;10.13;;;;;;;17.61;71.26;99405.81;1087404;54;20035;-85
2023/05/22 00:14:20;;;;;;;11.38;10.18;;;;;;;17.61;70.95;99399.59;1087469;54;20102;-84
2023/05/22 00:15:24;;;;;;;11.68;10.25;;;;;;;17.53;71.53;99403.31;1087233;47;20037;-84
2023/05/22 00:16:25;;;;;;;11.73;10.32;;;;;;;17.54;71.52;99402.28;1087258;47;20049;-86
2023/05/22 00:17:32;;;;;;;11.57;10.15;;;;;;;17.50;71.44;99401.00;1087299;47;20045;-84
2023/05/22 00:18:34;;;;;;;11.85;10.57;;;;;;;17.48;71.53;99408.47;1087224;54;20038;-84
2023/05/22 00:19:37;;;;;;;10.65;9.55;;;;;;;17.43;71.60;99413.69;1087235;47;20094;-85
2023/05/22 00:20:39;;;;;;;11.18;10.02;;;;;;;17.37;71.69;99406.41;1087110;54;20082;-84
2023/05/22 00:21:43;;;;;;;13.43;11.85;;;;;;;17.27;72.04;99404.94;1087430;54;20030;-84
2023/05/22 00:22:44;;;;;;;15.65;11.73;;;;;;;17.19;72.03;99407.84;1087109;47;20034;-83
2023/05/22 00:23:48;;;;;;;16.05;12.40;;;;;;;17.18;72.04;99408.00;1087168;47;20026;-85
2023/05/22 00:24:49;;;;;;;13.35;11.20;;;;;;;17.12;72.34;99415.91;1087185;54;20042;-85
2023/05/22 00:25:53;;;;;;;13.27;11.90;;;;;;;17.09;72.37;99415.50;1087451;54;20094;-83
2023/05/22 00:26:54;;;;;;;14.48;12.25;;;;;;;17.12;72.35;99417.75;1087471;54;20026;-84
2023/05/22 00:27:58;;;;;;;14.52;11.82;;;;;;;17.04;72.45;99412.53;1087029;47;20038;-83
2023/05/22 00:29:00;;;;;;;16.05;11.77;;;;;;;17.07;72.50;99412.16;1087096;47;20050;-83
2023/05/22 00:30:03;;;;;;;16.13;11.82;;;;;;;17.09;72.22;99420.88;1087116;54;20046;-84
2023/05/22 00:31:05;;;;;;;12.15;10.07;;;;;;;17.12;71.91;99415.06;1087166;47;20026;-86
2023/05/22 00:32:09;;;;;;;17.23;10.95;;;;;;;17.09;71.98;99424.41;1087226;54;20066;-84
2023/05/22 00:33:13;;;;;;;12.32;10.40;;;;;;;17.05;72.34;99419.63;1087149;47;20034;-85
2023/05/22 00:34:17;;;;;;;11.95;10.65;;;;;;;17.04;72.14;99417.94;1087249;47;20030;-85
2023/05/22 00:35:18;;;;;;;14.32;10.80;;;;;;;17.06;71.92;99410.47;1087152;47;20034;-84
2023/05/22 00:36:22;;;;;;;12.18;10.88;;;;;;;17.02;72.32;99411.91;1087162;54;20050;-85
2023/05/22 00:37:24;;;;;;;12.30;10.93;;;;;;;16.95;72.59;99410.03;1087201;47;20026;-84
2023/05/22 00:38:32;;;;;;;12.48;11.18;;;;;;;16.92;72.72;99409.56;1087198;54;20030;-85
2023/05/22 00:39:33;;;;;;;12.77;11.38;;;;;;;16.85;73.14;99412.25;1087460;54;20034;-83
2023/05/22 00:40:37;;;;;;;14.32;11.35;;;;;;;16.79;73.31;99404.94;1087417;54;20034;-83
2023/05/22 00:41:39;;;;;;;15.50;12.13;;;;;;;16.80;73.36;99418.25;1087181;47;20031;-87
2023/05/22 00:42:43;;;;;;;13.02;11.43;;;;;;;16.80;73.23;99409.31;1087148;47;20038;-85
2023/05/22 00:43:48;;;;;;;17.67;13.30;;;;;;;16.77;73.55;99405.13;1087108;54;20030;-85
2023/05/22 00:44:49;;;;;;;13.80;11.50;;;;;;;16.84;72.94;99424.06;1087440;54;20037;-85
2023/05/22 00:45:53;;;;;;;12.32;11.05;;;;;;;16.92;72.95;99415.78;1087095;47;20073;-86
2023/05/22 00:46:55;;;;;;;12.27;10.90;;;;;;;16.99;72.47;99419.41;1087098;47;20086;-85
2023/05/22 00:47:59;;;;;;;12.38;9.90;;;;;;;17.07;72.34;99417.53;1087154;47;20043;-85
2023/05/22 00:49:03;;;;;;;12.05;9.82;;;;;;;17.14;72.03;99418.41;1087085;47;20023;-86
2023/05/22 00:50:08;;;;;;;10.68;9.38;;;;;;;17.16;71.78;99419.03;1087030;47;20026;-85
2023/05/22 00:51:10;;;;;;;12.25;10.23;;;;;;;17.19;71.48;99421.34;1087204;54;20058;-84
2023/05/22 00:52:16;;;;;;;11.88;10.55;;;;;;;17.21;71.49;99423.81;1087127;47;20030;-87
2023/05/22 00:53:20;;;;;;;12.05;10.57;;;;;;;17.22;71.27;99417.38;1087198;47;20027;-84
2023/05/22 00:54:25;;;;;;;11.93;10.52;;;;;;;17.29;71.16;99426.34;1087085;47;20034;-86
2023/05/22 00:55:26;;;;;;;12.65;10.85;;;;;;;17.28;71.23;99424.66;1087042;47;20031;-87
2023/05/22 00:56:30;;;;;;;11.68;10.48;;;;;;;17.24;71.61;99431.53;1087222;54;20035;-87
2023/05/22 00:57:32;;;;;;;13.02;10.63;;;;;;;17.18;71.61;99425.06;1087293;47;20090;-85
2023/05/22 00:58:36;;;;;;;12.98;11.52;;;;;;;17.12;72.19;99428.56;1087181;47;20058;-84
2023/05/22 00:59:37;;;;;;;15.43;11.60;;;;;;;17.06;72.21;99427.50;1087125;54;20030;-84
2023/05/22 01:00:44;;;;;;;12.35;11.00;;;;;;;17.05;72.32;99427.72;1087101;47;20391;-87
2023/05/22 01:01:45;;;;;;;12.57;11.27;;;;;;;17.03;72.78;99417.13;1087117;47;20026;-87
2023/05/22 01:02:50;;;;;;;13.88;11.27;;;;;;;16.99;73.04;99427.50;1087009;54;20034;-86
2023/05/22 01:03:52;;;;;;;13.13;11.02;;;;;;;16.97;72.78;99421.47;1087126;47;20026;-85
2023/05/22 01:04:59;;;;;;;12.75;10.02;;;;;;;16.93;73.41;99417.50;1088378;39;20391;-87
2023/05/22 01:06:00;;;;;;;12.43;11.02;;;;;;;16.92;73.25;99418.50;1087139;47;20026;-86
2023/05/22 01:07:04;;;;;;;11.60;10.35;;;;;;;16.94;73.11;99419.16;1087132;47;20062;-86
2023/05/22 01:08:07;;;;;;;12.90;10.63;;;;;;;16.92;73.07;99420.38;1087140;47;20026;-86
2023/05/22 01:09:11;;;;;;;12.10;10.80;;;;;;;16.94;73.33;99419.16;1087060;47;20031;-86
2023/05/22 01:10:12;;;;;;;11.88;10.40;;;;;;;16.93;73.29;99422.88;1087057;54;20062;-85
2023/05/22 01:11:21;;;;;;;11.48;9.75;;;;;;;16.98;73.03;99420.44;1087190;47;20049;-85
2023/05/22 01:12:33;;;;;;;12.32;10.05;;;;;;;16.95;73.37;99420.81;1087217;47;20038;-87
2023/05/22 01:13:44;;;;;;;11.88;9.80;;;;;;;16.99;72.97;99432.91;1087307;54;20030;-86
2023/05/22 01:14:52;;;;;;;12.80;10.65;;;;;;;16.93;73.32;99422.03;1087149;47;20038;-85
2023/05/22 01:16:03;;;;;;;12.30;10.95;;;;;;;16.88;73.71;99422.63;1087159;54;20034;-84
2023/05/22 01:17:22;;;;;;;13.18;10.32;;;;;;;16.82;73.84;99423.44;1087393;54;20061;-85
2023/05/22 01:18:30;;;;;;;14.55;11.88;;;;;;;16.74;74.15;99426.28;1087148;47;20094;-84
2023/05/22 01:19:59;;;;;;;;;;;;;;;16.65;75.13;99425.66;1087308;47;20023;-87
2023/05/22 01:21:15;;;;;;;13.32;11.55;;;;;;;16.73;74.19;99424.63;1087231;47;20470;-87
2023/05/22 01:22:45;;;;;;;13.23;10.68;;;;;;;16.70;74.57;99423.16;1087189;47;20022;-84
2023/05/22 01:24:21;;;;;;;12.15;9.98;;;;;;;16.78;73.94;99420.28;1087165;47;20030;-84
2023/05/22 01:25:49;;;;;;;12.55;10.77;;;;;;;16.76;74.02;99419.69;1087106;54;20034;-84
2023/05/22 01:27:16;;;;;;;11.23;9.50;;;;;;;16.75;73.99;99417.16;1087126;47;20031;-87
2023/05/22 01:28:41;;;;;;;13.02;11.18;;;;;;;16.67;74.47;99424.41;1087372;54;20382;-84
2023/05/22 01:29:49;;;;;;;12.18;10.80;;;;;;;16.68;74.38;99419.84;1087183;47;20063;-87
2023/05/22 01:31:01;;;;;;;12.25;10.32;;;;;;;16.69;74.47;99421.50;1087082;47;20023;-86
2023/05/22 01:32:07;;;;;;;12.85;10.88;;;;;;;16.70;74.24;99425.88;1087153;47;20458;-85
2023/05/22 01:33:11;;;;;;;11.88;10.63;;;;;;;16.66;74.37;99425.44;1087080;54;20051;-85
2023/05/22 01:34:18;;;;;;;11.93;10.63;;;;;;;16.61;74.73;99427.91;1086967;47;20045;-86
2023/05/22 01:35:21;;;;;;;12.70;11.13;;;;;;;16.59;74.72;99418.34;1087121;54;20030;-85
2023/05/22 01:36:31;;;;;;;12.85;11.07;;;;;;;16.54;75.10;99424.31;1087051;51;20027;-84
2023/05/22 01:37:33;;;;;;;;;;;;;;;16.51;75.21;99422.88;1087327;54;20030;-85
2023/05/22 01:38:38;;;;;;;12.18;10.40;;;;;;;16.51;75.04;99420.16;1087338;47;19942;-84
2023/05/22 01:39:42;;;;;;;11.13;9.93;;;;;;;16.54;74.73;99421.63;1087133;47;20031;-83
2023/05/22 01:40:48;;;;;;;11.80;10.13;;;;;;;16.57;74.52;99429.34;1087021;47;20032;-84
2023/05/22 01:41:50;;;;;;;13.13;11.02;;;;;;;16.55;74.62;99420.59;1087190;47;20023;-86
2023/05/22 01:42:54;;;;;;;12.98;10.98;;;;;;;16.57;74.68;99423.13;1087166;47;20038;-82
2023/05/22 01:43:55;;;;;;;12.70;10.82;;;;;;;16.60;74.71;99426.25;1087076;54;20038;-84
2023/05/22 01:44:59;;;;;;;13.30;10.68;;;;;;;16.60;74.42;99428.94;1087368;54;20094;-83
2023/05/22 01:46:04;;;;;;;12.27;10.98;;;;;;;16.61;74.50;99429.75;1087379;54;20037;-84
2023/05/22 01:47:09;;;;;;;13.35;10.43;;;;;;;16.61;74.44;99427.91;1087448;47;20094;-86
2023/05/22 01:48:11;;;;;;;12.10;9.82;;;;;;;16.69;74.23;99429.59;1089520;39;20199;-85
2023/05/22 01:49:17;;;;;;;11.68;9.93;;;;;;;16.73;74.20;99424.63;1087099;47;20030;-82
2023/05/22 01:50:19;;;;;;;11.70;9.48;;;;;;;16.77;73.97;99424.03;1087014;47;20041;-84
2023/05/22 01:51:39;;;;;;;12.20;9.80;;;;;;;16.79;73.83;99430.06;1087051;47;20035;-85
2023/05/22 01:52:51;;;;;;;10.85;9.75;;;;;;;16.86;73.90;99424.69;1087074;54;20031;-82
2023/05/22 01:54:04;;;;;;;10.82;9.50;;;;;;;16.90;73.51;99419.72;1087301;54;20067;-84
2023/05/22 01:55:12;;;;;;;10.88;9.48;;;;;;;16.94;73.04;99424.56;1086959;47;20027;-82
2023/05/22 01:56:29;;;;;;;11.63;9.73;;;;;;;16.93;73.11;99425.59;1087079;54;20089;-86
2023/05/22 01:57:35;;;;;;;11.10;9.25;;;;;;;16.96;73.06;99430.59;1087087;47;20053;-83
2023/05/22 01:58:45;;;;;;;9.57;8.55;;;;;;;16.97;72.71;99432.25;1087139;47;20094;-84
2023/05/22 01:59:50;;;;;;;11.35;8.93;;;;;;;17.01;72.88;99430.00;1087079;47;20106;-83
2023/05/22 02:00:59;;;;;;;10.68;9.02;;;;;;;17.03;72.49;99435.16;1086907;47;20033;-83
2023/05/22 02:02:06;;;;;;;10.45;8.82;;;;;;;17.04;72.67;99426.03;1087032;47;20034;-84
2023/05/22 02:03:15;;;;;;;13.38;10.50;;;;;;;16.95;73.04;99430.81;1087100;54;20038;-84
2023/05/22 02:04:18;;;;;;;13.82;10.55;;;;;;;16.88;73.19;99430.75;1087050;47;20023;-84
2023/05/22 02:05:24;;;;;;;12.50;11.00;;;;;;;16.84;73.06;99434.84;1086946;47;20696;-83
2023/05/22 02:06:31;;;;;;;15.82;12.60;;;;;;;16.80;73.29;99430.91;1087175;54;20094;-82
2023/05/22 02:07:38;;;;;;;13.25;11.85;;;;;;;16.75;73.43;99426.13;1087155;47;20042;-84
2023/05/22 02:08:41;;;;;;;12.73;11.10;;;;;;;16.70;73.77;99433.97;1087138;47;20027;-82
2023/05/22 02:09:49;;;;;;;12.48;11.18;;;;;;;16.64;73.84;99430.19;1087171;47;20031;-84
2023/05/22 02:10:54;;;;;;;12.82;11.43;;;;;;;16.65;73.93;99433.75;1087084;54;20033;-84
2023/05/22 02:12:01;;;;;;;12.88;11.43;;;;;;;16.57;74.31;99429.34;1087131;47;20026;-83
2023/05/22 02:13:04;;;;;;;12.93;11.25;;;;;;;16.50;74.54;99432.00;1087127;47;20062;-82
2023/05/22 02:14:10;;;;;;;14.43;12.15;;;;;;;16.45;74.42;99437.16;1087378;47;20041;-83
2023/05/22 02:15:12;;;;;;;13.77;11.65;;;;;;;16.40;74.65;99450.38;1087597;47;20091;-82
2023/05/22 02:16:16;;;;;;;13.63;11.98;;;;;;;16.33;75.27;99442.28;1087509;47;20071;-82
2023/05/22 02:17:22;;;;;;;13.27;11.88;;;;;;;16.28;75.28;99433.94;1087496;47;20049;-86
2023/05/22 02:18:29;;;;;;;13.45;12.02;;;;;;;16.27;75.32;99444.91;1087341;46;20042;-86
2023/05/22 02:19:33;;;;;;;14.68;12.15;;;;;;;16.21;75.17;99446.53;1087497;54;20078;-84
2023/05/22 02:20:37;;;;;;;12.90;11.35;;;;;;;16.18;75.40;99436.13;1088142;39;20315;-82
2023/05/22 02:21:38;;;;;;;12.95;11.30;;;;;;;16.15;75.49;99440.06;1087333;54;20031;-83
2023/05/22 02:22:44;;;;;;;16.02;11.80;;;;;;;16.14;75.30;99435.69;1087309;54;20069;-84
2023/05/22 02:23:45;;;;;;;13.65;12.18;;;;;;;16.08;75.76;99441.03;1087306;47;20053;-81
2023/05/22 02:24:50;;;;;;;18.27;13.25;;;;;;;16.07;75.62;99445.59;1087403;54;20034;-83
2023/05/22 02:25:51;;;;;;;15.77;12.23;;;;;;;16.00;75.91;99442.03;1087364;47;20098;-84
2023/05/22 02:26:55;;;;;;;13.57;12.18;;;;;;;15.98;76.02;99442.19;1087395;47;20054;-86
2023/05/22 02:27:56;;;;;;;14.25;12.65;;;;;;;15.94;76.23;99451.72;1087338;47;20057;-83
2023/05/22 02:29:00;;;;;;;14.80;12.95;;;;;;;15.87;76.13;99440.88;1087311;47;20057;-86
2023/05/22 02:30:02;;;;;;;14.68;12.60;;;;;;;15.84;76.29;99446.66;1087253;54;20061;-83
2023/05/22 02:31:06;;;;;;;14.15;11.57;;;;;;;15.84;76.55;99451.22;1087315;47;20040;-82
2023/05/22 02:32:08;;;;;;;14.15;12.55;;;;;;;15.87;76.29;99445.44;1087337;47;20022;-83
2023/05/22 02:33:16;;;;;;;13.55;12.15;;;;;;;15.84;76.38;99448.53;1087332;46;20078;-82
2023/05/22 02:34:18;;;;;;;12.95;11.32;;;;;;;15.81;76.24;99440.78;1087302;47;20053;-83
2023/05/22 02:35:22;;;;;;;15.35;12.15;;;;;;;15.77;76.69;99444.91;1087226;47;20057;-81
2023/05/22 02:36:25;;;;;;;14.55;12.60;;;;;;;15.77;76.71;99444.91;1087325;47;20033;-85
2023/05/22 02:37:28;;;;;;;15.23;13.05;;;;;;;15.73;76.61;99445.28;1087365;54;20110;-84
2023/05/22 02:38:30;;;;;;;13.05;11.65;;;;;;;15.74;76.83;99440.72;1087327;51;20022;-82
2023/05/22 02:39:33;;;;;;;16.27;12.93;;;;;;;15.72;76.93;99438.22;1087320;54;20432;-83
2023/05/22 02:40:35;;;;;;;13.85;12.35;;;;;;;15.72;76.79;99440.09;1087192;47;20031;-82
2023/05/22 02:41:39;;;;;;;14.10;12.57;;;;;;;15.72;76.81;99446.31;1087268;47;20030;-82
2023/05/22 02:42:40;;;;;;;14.27;11.85;;;;;;;15.74;76.59;99438.03;1087279;47;20107;-84
2023/05/22 02:43:44;;;;;;;13.88;12.10;;;;;;;15.76;76.75;99449.44;1087373;47;20046;-82
2023/05/22 02:44:46;;;;;;;14.18;11.07;;;;;;;15.73;76.97;99445.28;1087324;47;20061;-82
2023/05/22 02:45:50;;;;;;;12.57;10.77;;;;;;;15.69;77.17;99438.59;1087355;47;20038;-84
2023/05/22 02:46:51;;;;;;;13.48;11.43;;;;;;;15.70;76.87;99442.16;1087358;47;20114;-83
2023/05/22 02:47:55;;;;;;;14.73;11.88;;;;;;;15.71;77.08;99438.44;1087241;47;20034;-84
2023/05/22 02:48:59;;;;;;;16.65;11.63;;;;;;;15.69;77.33;99438.59;1087265;47;20030;-82
2023/05/22 02:50:04;;;;;;;13.73;12.23;;;;;;;15.65;77.10;99442.72;1087108;47;20030;-83
2023/05/22 02:51:07;;;;;;;14.93;12.13;;;;;;;15.65;77.14;99453.50;1087355;46;20042;-83
2023/05/22 02:52:11;;;;;;;14.15;11.95;;;;;;;15.65;77.39;99444.56;1087246;47;20026;-82
2023/05/22 02:53:13;;;;;;;13.75;11.32;;;;;;;15.64;77.18;99446.44;1087253;54;20034;-82
2023/05/22 02:54:17;;;;;;;14.25;11.93;;;;;;;15.67;77.38;99450.59;1087186;47;20027;-82
2023/05/22 02:55:18;;;;;;;13.80;11.73;;;;;;;15.68;77.09;99452.28;1087261;54;20034;-84
2023/05/22 02:56:22;;;;;;;14.38;12.38;;;;;;;15.70;77.11;99451.06;1087258;47;20037;-81
2023/05/22 02:57:24;;;;;;;14.70;11.95;;;;;;;15.73;77.10;99455.22;1087210;47;20026;-83
2023/05/22 02:58:27;;;;;;;13.48;12.00;;;;;;;15.70;77.24;99448.34;1087222;47;20061;-83
2023/05/22 02:59:28;;;;;;;13.00;10.55;;;;;;;15.70;76.93;99456.44;1087240;47;20078;-82
2023/05/22 03:00:33;;;;;;;12.93;11.27;;;;;;;15.73;77.04;99449.81;1087168;54;20058;-84
2023/05/22 03:01:35;;;;;;;15.35;11.07;;;;;;;15.72;77.09;99453.56;1087211;47;20138;-86
2023/05/22 03:02:39;;;;;;;12.32;11.05;;;;;;;15.73;77.18;99456.06;1087263;47;20035;-84
2023/05/22 03:03:40;;;;;;;12.93;11.02;;;;;;;15.71;77.25;99458.13;1087242;47;20034;-83
2023/05/22 03:04:46;;;;;;;13.48;11.07;;;;;;;15.73;77.19;99452.53;1087179;47;20030;-84
2023/05/22 03:05:48;;;;;;;12.27;10.80;;;;;;;15.78;76.99;99449.25;1087097;47;20057;-83
2023/05/22 03:06:53;;;;;;;13.48;11.05;;;;;;;15.79;76.84;99459.00;1087243;47;20038;-83
2023/05/22 03:07:54;;;;;;;12.27;10.93;;;;;;;15.82;76.76;99458.63;1087268;47;20031;-82
2023/05/22 03:08:58;;;;;;;14.32;11.02;;;;;;;15.81;76.59;99460.50;1087198;47;20102;-83
2023/05/22 03:10:00;;;;;;;13.13;11.73;;;;;;;15.80;76.74;99449.91;1087139;47;20053;-83
2023/05/22 03:11:04;;;;;;;13.95;11.35;;;;;;;15.81;76.68;99452.41;1087247;47;20034;-82
2023/05/22 03:12:06;;;;;;;14.18;12.18;;;;;;;15.82;76.70;99454.06;1087308;47;20030;-83
2023/05/22 03:13:10;;;;;;;13.07;11.43;;;;;;;15.80;77.02;99460.66;1087377;47;20423;-84
2023/05/22 03:14:11;;;;;;;14.68;12.07;;;;;;;15.78;77.12;99451.94;1087330;47;20033;-81
2023/05/22 03:15:15;;;;;;;13.93;11.73;;;;;;;15.74;76.89;99451.50;1087352;54;20102;-83
2023/05/22 03:16:18;;;;;;;14.45;12.18;;;;;;;15.72;77.36;99459.78;1087294;47;20092;-83
2023/05/22 03:17:24;;;;;;;13.57;10.85;;;;;;;15.68;77.58;99457.66;1087300;46;20086;-84
2023/05/22 03:18:25;;;;;;;13.65;11.50;;;;;;;15.64;77.68;99456.38;1087366;47;20079;-83
2023/05/22 03:19:29;;;;;;;14.63;12.85;;;;;;;15.64;77.48;99464.44;1087373;47;20027;-83
2023/05/22 03:20:33;;;;;;;14.45;11.68;;;;;;;15.59;77.52;99462.34;1087218;47;20033;-83
2023/05/22 03:21:39;;;;;;;14.90;12.40;;;;;;;15.55;77.87;99463.75;1087170;47;20049;-83
2023/05/22 03:22:41;;;;;;;14.95;12.25;;;;;;;15.54;78.06;99467.47;1087347;47;20458;-84
2023/05/22 03:23:46;;;;;;;14.10;12.27;;;;;;;15.52;78.09;99470.38;1087170;47;20031;-83
2023/05/22 03:24:48;;;;;;;14.77;11.70;;;;;;;15.48;78.33;99468.25;1087234;47;20102;-84
2023/05/22 03:25:52;;;;;;;14.73;12.45;;;;;;;15.40;78.40;99470.03;1087040;47;20054;-81
2023/05/22 03:26:54;;;;;;;15.73;11.95;;;;;;;15.40;78.63;99471.88;1087317;47;20049;-83
2023/05/22 03:28:08;;;;;;;15.85;11.75;;;;;;;15.36;78.78;99466.06;1087299;47;20023;-82
2023/05/22 03:29:13;;;;;;;13.30;11.75;;;;;;;15.35;78.82;99469.78;1087279;51;20031;-84
2023/05/22 03:30:18;;;;;;;15.65;13.18;;;;;;;15.28;78.99;99475.06;1087157;47;20434;-83
2023/05/22 03:31:32;;;;;;;14.27;12.40;;;;;;;15.24;79.00;99473.81;1087254;46;20379;-84
2023/05/22 03:32:43;;;;;;;14.35;12.82;;;;;;;15.22;79.52;99483.06;1087288;47;20034;-85
2023/05/22 03:33:44;;;;;;;17.35;12.43;;;;;;;15.16;79.53;99481.97;1087249;54;20030;-84
2023/05/22 03:34:49;;;;;;;13.75;12.30;;;;;;;15.13;79.53;99493.13;1087310;47;20049;-83
2023/05/22 03:35:53;;;;;;;16.67;13.57;;;;;;;15.06;79.98;99486.84;1087188;54;20034;-83
2023/05/22 03:36:57;;;;;;;15.13;13.00;;;;;;;14.96;80.12;99492.47;1087238;54;20035;-82
2023/05/22 03:37:58;;;;;;;14.02;12.57;;;;;;;14.89;80.87;99491.56;1087281;47;20086;-83
2023/05/22 03:39:02;;;;;;;15.25;13.65;;;;;;;14.83;81.18;99487.75;1087337;54;20046;-82
2023/05/22 03:40:06;;;;;;;16.17;12.18;;;;;;;14.86;80.97;99490.09;1087289;47;20038;-83
2023/05/22 03:41:10;;;;;;;17.00;12.77;;;;;;;14.82;80.87;99481.56;1087332;54;20034;-83
2023/05/22 03:42:12;;;;;;;13.95;12.10;;;;;;;14.78;81.31;99485.63;1087230;47;20049;-82
2023/05/22 03:43:16;;;;;;;13.77;12.30;;;;;;;14.75;81.47;99490.56;1087227;47;20026;-83
2023/05/22 03:44:18;;;;;;;12.77;11.48;;;;;;;14.76;81.00;99481.47;1087209;47;20107;-82
2023/05/22 03:45:23;;;;;;;13.35;11.95;;;;;;;14.77;81.00;99483.13;1087129;47;20031;-82
2023/05/22 03:46:24;;;;;;;12.93;10.95;;;;;;;14.85;80.90;99484.88;1087125;47;20026;-84
2023/05/22 03:47:28;;;;;;;15.13;11.35;;;;;;;14.91;80.27;99484.16;1087113;47;20058;-83
2023/05/22 03:48:31;;;;;;;14.65;11.60;;;;;;;14.89;80.41;99491.56;1087186;54;20034;-81
2023/05/22 03:49:35;;;;;;;11.85;10.52;;;;;;;15.00;80.27;99483.03;1087208;54;20026;-83
2023/05/22 03:50:36;;;;;;;12.65;11.27;;;;;;;14.97;79.95;99483.38;1087024;54;20034;-82
2023/05/22 03:51:43;;;;;;;13.75;12.25;;;;;;;14.97;80.33;99483.38;1087450;54;20046;-82
2023/05/22 03:52:45;;;;;;;12.48;10.82;;;;;;;14.90;80.35;99479.78;1087213;46;20081;-81
2023/05/22 03:53:49;;;;;;;14.02;11.70;;;;;;;14.89;80.61;99478.94;1087245;54;20056;-83
2023/05/22 03:54:52;;;;;;;12.63;10.63;;;;;;;14.90;80.41;99480.59;1087505;54;20031;-80
2023/05/22 03:55:56;;;;;;;14.70;11.60;;;;;;;14.87;80.67;99478.31;1087220;47;20035;-82
2023/05/22 03:56:58;;;;;;;12.32;10.85;;;;;;;14.90;80.49;99483.28;1087275;47;20038;-83
2023/05/22 03:58:02;;;;;;;12.05;10.82;;;;;;;14.93;80.48;99479.38;1087175;47;20026;-84
2023/05/22 03:59:03;;;;;;;12.40;11.10;;;;;;;14.95;80.32;99480.91;1087169;47;20026;-85
2023/05/22 04:00:10;;;;;;;12.30;10.95;;;;;;;15.01;79.82;99482.00;1087175;46;20034;-84
2023/05/22 04:01:15;;;;;;;13.10;10.95;;;;;;;15.04;79.88;99478.91;1087438;54;20027;-84
2023/05/22 04:02:19;;;;;;;12.15;10.07;;;;;;;15.12;79.46;99478.81;1087296;46;20041;-84
2023/05/22 04:03:21;;;;;;;13.13;10.98;;;;;;;15.13;79.37;99477.78;1087296;54;20030;-83
2023/05/22 04:04:25;;;;;;;11.43;10.05;;;;;;;15.20;79.26;99477.06;1087489;54;20031;-82
2023/05/22 04:05:27;;;;;;;12.18;10.43;;;;;;;15.25;78.78;99482.69;1087234;47;20094;-84
2023/05/22 04:06:41;;;;;;;13.45;11.18;;;;;;;15.28;78.82;99480.47;1087349;54;20030;-82
2023/05/22 04:07:46;;;;;;;12.50;10.93;;;;;;;15.29;78.54;99479.44;1087187;47;20038;-83
2023/05/22 04:08:54;;;;;;;14.68;13.00;;;;;;;15.28;78.75;99483.16;1087249;54;20035;-85
2023/05/22 04:09:55;;;;;;;15.77;11.98;;;;;;;15.32;78.73;99475.53;1087211;54;20030;-80
2023/05/22 04:10:59;;;;;;;13.98;12.32;;;;;;;15.28;78.82;99485.03;1087140;47;20030;-80
2023/05/22 04:12:01;;;;;;;13.73;12.25;;;;;;;15.27;78.67;99484.16;1087190;54;20057;-82
2023/05/22 04:13:05;;;;;;;13.75;12.20;;;;;;;15.25;79.02;99485.38;1087440;54;20077;-82
2023/05/22 04:14:08;;;;;;;15.52;12.63;;;;;;;15.24;78.98;99489.09;1087155;47;20098;-84
2023/05/22 04:15:12;;;;;;;14.55;12.98;;;;;;;15.17;79.18;99485.50;1087193;54;20038;-83
2023/05/22 04:16:16;;;;;;;15.02;13.07;;;;;;;15.10;79.53;99488.97;1087089;47;20038;-81
2023/05/22 04:17:21;;;;;;;15.25;12.48;;;;;;;15.11;79.60;99485.22;1087219;54;20034;-82
2023/05/22 04:18:23;;;;;;;14.18;12.10;;;;;;;15.09;79.63;99497.19;1087186;47;20106;-82
2023/05/22 04:19:27;;;;;;;14.10;12.18;;;;;;;15.08;79.49;99492.84;1087147;54;20086;-83
2023/05/22 04:20:29;;;;;;;12.40;11.10;;;;;;;15.08;79.31;99498.22;1087121;54;20077;-84
2023/05/22 04:21:34;;;;;;;13.32;11.93;;;;;;;15.06;79.31;99495.72;1087142;47;20031;-83
2023/05/22 04:22:37;;;;;;;15.02;11.43;;;;;;;15.06;79.64;99494.91;1087159;47;20054;-84
2023/05/22 04:23:44;;;;;;;14.20;12.43;;;;;;;15.01;79.57;99498.16;1087186;47;20039;-82
2023/05/22 04:24:47;;;;;;;13.70;12.13;;;;;;;15.01;79.76;99503.53;1087184;54;20038;-82
2023/05/22 04:25:52;;;;;;;13.95;12.40;;;;;;;15.01;79.84;99495.47;1087392;54;20103;-82
2023/05/22 04:26:55;;;;;;;15.48;12.65;;;;;;;15.03;80.00;99493.41;1087540;54;20033;-84
2023/05/22 04:28:01;;;;;;;14.48;12.90;;;;;;;15.04;79.81;99502.31;1087240;47;20030;-83
2023/05/22 04:29:20;;;;;;;14.02;12.13;;;;;;;15.02;80.34;99496.28;1087247;54;20026;-82
2023/05/22 04:30:25;;;;;;;15.05;12.25;;;;;;;15.05;80.00;99499.44;1086986;54;20030;-84
2023/05/22 04:31:29;;;;;;;14.13;12.10;;;;;;;15.03;80.15;99495.28;1087301;47;20082;-82
2023/05/22 04:32:30;;;;;;;14.20;12.63;;;;;;;15.00;80.43;99499.19;1087229;47;20070;-83
2023/05/22 04:33:37;;;;;;;14.50;12.00;;;;;;;15.00;80.20;99498.31;1087281;54;20031;-82
2023/05/22 04:34:40;;;;;;;14.73;11.93;;;;;;;14.98;80.63;99506.59;1087378;54;20034;-82
2023/05/22 04:35:44;;;;;;;14.25;12.18;;;;;;;14.97;80.56;99504.91;1087137;54;20030;-83
2023/05/22 04:36:46;;;;;;;13.85;12.20;;;;;;;15.01;80.49;99506.22;1087036;47;20079;-81
2023/05/22 04:37:51;;;;;;;12.45;11.15;;;;;;;15.05;80.23;99506.69;1087118;47;20429;-82
2023/05/22 04:39:05;;;;;;;;;;;;;;;;;;;;;
2023/05/22 04:40:33;;;;;;;14.73;11.45;;;;;;;15.12;80.14;99497.66;1086916;54;20034;-83
2023/05/22 04:41:35;;;;;;;13.38;11.75;;;;;;;15.15;80.03;99511.78;1087107;47;20038;-81
2023/05/22 04:42:41;;;;;;;12.88;11.45;;;;;;;15.20;79.65;99512.88;1087160;47;20033;-81
2023/05/22 04:43:42;;;;;;;14.27;12.38;;;;;;;15.21;79.49;99519.13;1090126;39;20378;-82
2023/05/22 04:44:47;;;;;;;13.57;12.18;;;;;;;15.18;79.47;99516.78;1087115;47;20034;-82
2023/05/22 04:45:48;;;;;;;14.38;12.35;;;;;;;15.17;79.71;99515.13;1087036;47;20026;-83
2023/05/22 04:46:55;;;;;;;13.30;11.70;;;;;;;15.19;79.58;99513.06;1088428;39;20367;-83
2023/05/22 04:48:01;;;;;;;13.35;11.95;;;;;;;15.19;79.32;99518.47;1087521;54;20030;-84
2023/05/22 04:49:07;;;;;;;15.63;12.50;;;;;;;15.20;79.49;99514.75;1087195;47;20026;-84
2023/05/22 04:50:09;;;;;;;15.23;12.50;;;;;;;15.17;79.39;99521.31;1087265;54;20042;-85
2023/05/22 04:51:13;;;;;;;15.00;12.57;;;;;;;15.19;79.71;99518.47;1087101;47;20036;-85
2023/05/22 04:52:15;;;;;;;13.38;11.93;;;;;;;15.21;79.56;99511.84;1087164;54;20030;-85
2023/05/22 04:53:19;;;;;;;12.95;11.32;;;;;;;15.25;79.22;99513.16;1087121;47;20031;-86
2023/05/22 04:54:23;;;;;;;14.27;11.10;;;;;;;15.23;79.47;99515.19;1087190;47;20030;-85
2023/05/22 04:55:26;;;;;;;13.85;11.80;;;;;;;15.24;79.25;99516.88;1086969;47;20049;-84
2023/05/22 04:56:29;;;;;;;13.18;11.77;;;;;;;15.33;79.20;99514.06;1087015;47;20026;-85
2023/05/22 04:57:32;;;;;;;14.77;12.20;;;;;;;15.38;79.02;99511.63;1087187;47;20057;-84
2023/05/22 04:58:33;;;;;;;15.02;11.90;;;;;;;15.42;78.65;99508.38;1087196;47;20031;-85
2023/05/22 04:59:40;;;;;;;14.23;11.43;;;;;;;15.50;78.42;99512.81;1087161;47;20069;-84